createdAt,value
2023-08-25T00:01:44.024Z,1.98
2023-08-25T00:04:13.589Z,2.30
2023-08-25T00:06:42.054Z,1.80
2023-08-25T00:09:10.720Z,2.60
2023-08-25T00:11:40.518Z,2.33
2023-08-25T00:14:08.958Z,2.03
2023-08-25T00:16:37.358Z,2.00
2023-08-25T00:19:05.757Z,2.08
2023-08-25T00:21:35.401Z,2.08
2023-08-25T00:24:04.163Z,1.90
2023-08-25T00:26:33.266Z,1.95
2023-08-25T00:29:01.621Z,1.87
2023-08-25T00:31:30.060Z,2.25
2023-08-25T00:33:59.184Z,2.00
2023-08-25T00:36:27.786Z,2.15
2023-08-25T00:38:57.880Z,2.20
2023-08-25T00:41:26.346Z,1.87
2023-08-25T00:43:54.794Z,1.75
2023-08-25T00:46:23.383Z,2.13
2023-08-25T00:48:52.022Z,1.98
2023-08-25T00:51:20.862Z,1.60
2023-08-25T00:53:49.639Z,2.00
2023-08-25T00:56:20.816Z,2.15
2023-08-25T00:58:50.439Z,1.65
2023-08-25T01:01:20.084Z,1.70
2023-08-25T01:03:50.029Z,1.92
2023-08-25T01:06:18.531Z,1.30
2023-08-25T01:08:47.212Z,1.73
2023-08-25T01:11:28.550Z,1.70
2023-08-25T01:14:07.851Z,1.88
2023-08-25T01:16:39.709Z,2.00
2023-08-25T01:19:22.441Z,1.77
2023-08-25T01:21:59.554Z,1.70
2023-08-25T01:24:31.282Z,1.67
2023-08-25T01:27:01.607Z,2.17
2023-08-25T01:29:29.993Z,1.83
2023-08-25T01:31:59.754Z,1.80
2023-08-25T01:34:28.257Z,1.70
2023-08-25T01:37:04.939Z,2.25
2023-08-25T01:39:35.165Z,1.90
2023-08-25T01:42:07.360Z,2.08
2023-08-25T01:44:38.587Z,1.90
2023-08-25T01:47:09.409Z,1.75
2023-08-25T01:49:39.694Z,2.10
2023-08-25T01:52:09.025Z,1.75
2023-08-25T01:54:37.758Z,1.85
2023-08-25T01:57:07.341Z,1.90
2023-08-25T01:59:35.800Z,2.05
2023-08-25T02:02:04.377Z,1.73
2023-08-25T02:04:32.866Z,2.20
2023-08-25T02:07:01.346Z,1.67
2023-08-25T02:09:29.748Z,1.80
2023-08-25T02:11:58.175Z,1.80
2023-08-25T02:14:29.102Z,1.92
2023-08-25T02:16:57.711Z,1.75
2023-08-25T02:19:26.206Z,1.77
2023-08-25T02:21:55.929Z,1.80
2023-08-25T02:24:24.510Z,1.70
2023-08-25T02:26:53.582Z,1.92
2023-08-25T02:29:22.034Z,1.85
2023-08-25T02:31:51.543Z,1.70
2023-08-25T02:34:20.382Z,1.60
2023-08-25T02:36:48.945Z,1.70
2023-08-25T02:39:18.345Z,1.80
2023-08-25T02:41:46.776Z,1.67
2023-08-25T02:44:14.881Z,1.50
2023-08-25T02:46:44.341Z,1.50
2023-08-25T02:49:13.773Z,1.48
2023-08-25T02:51:42.259Z,1.67
2023-08-25T02:54:10.714Z,1.33
2023-08-25T02:56:39.119Z,1.40
2023-08-25T02:59:07.816Z,1.70
2023-08-25T03:01:37.557Z,1.70
2023-08-25T03:04:06.239Z,1.55
2023-08-25T03:06:36.121Z,1.40
2023-08-25T03:09:06.106Z,1.70
2023-08-25T03:11:34.755Z,1.83
2023-08-25T03:14:06.332Z,1.40
2023-08-25T03:16:34.844Z,1.30
2023-08-25T03:19:03.960Z,1.40
2023-08-25T03:21:32.650Z,1.50
2023-08-25T03:24:02.144Z,1.50
2023-08-25T03:26:30.608Z,1.23
2023-08-25T03:28:59.056Z,1.25
2023-08-25T03:31:27.650Z,1.33
2023-08-25T03:33:56.236Z,1.60
2023-08-25T03:36:24.716Z,1.30
2023-08-25T03:38:53.629Z,1.30
2023-08-25T03:41:23.169Z,1.30
2023-08-25T03:43:51.574Z,1.40
2023-08-25T03:46:20.105Z,1.50
2023-08-25T03:48:48.538Z,1.47
2023-08-25T03:51:17.532Z,1.70
2023-08-25T03:53:46.265Z,1.55
2023-08-25T03:56:14.729Z,1.20
2023-08-25T03:58:44.256Z,1.40
2023-08-25T04:01:12.718Z,1.30
2023-08-25T04:03:41.345Z,1.30
2023-08-25T04:06:09.812Z,1.50
2023-08-25T04:08:38.248Z,1.15
2023-08-25T04:11:06.723Z,1.40
2023-08-25T04:13:36.167Z,1.40
2023-08-25T04:16:06.491Z,1.20
2023-08-25T04:18:35.774Z,1.45
2023-08-25T04:21:04.556Z,1.50
2023-08-25T04:23:33.323Z,1.40
2023-08-25T04:26:03.657Z,1.27
2023-08-25T04:28:32.585Z,1.38
2023-08-25T04:31:01.062Z,1.50
2023-08-25T04:33:40.298Z,1.25
2023-08-25T04:36:12.251Z,1.40
2023-08-25T04:38:40.803Z,1.60
2023-08-25T04:41:09.268Z,1.48
2023-08-25T04:43:37.792Z,1.63
2023-08-25T04:46:06.398Z,1.20
2023-08-25T04:48:34.856Z,1.73
2023-08-25T04:51:04.405Z,1.53
2023-08-25T04:53:33.734Z,1.60
2023-08-25T04:56:02.187Z,1.50
2023-08-25T04:58:33.684Z,1.30
2023-08-25T05:01:02.199Z,1.40
2023-08-25T05:03:30.890Z,1.70
2023-08-25T05:06:00.849Z,1.50
2023-08-25T05:08:32.927Z,2.13
2023-08-25T05:11:01.491Z,1.70
2023-08-25T05:13:29.915Z,1.60
2023-08-25T05:15:58.375Z,1.83
2023-08-25T05:18:45.407Z,1.52
2023-08-25T05:21:14.204Z,1.88
2023-08-25T05:23:47.692Z,1.58
2023-08-25T05:26:17.248Z,2.20
2023-08-25T05:28:55.575Z,1.50
2023-08-25T05:31:24.222Z,1.73
2023-08-25T05:34:05.241Z,1.65
2023-08-25T05:36:36.578Z,2.13
2023-08-25T05:39:07.055Z,1.90
2023-08-25T05:41:37.059Z,1.60
2023-08-25T05:44:06.826Z,1.70
2023-08-25T05:46:35.261Z,1.90
2023-08-25T05:49:04.091Z,1.90
2023-08-25T05:51:32.479Z,1.80
2023-08-25T05:54:00.543Z,1.50
2023-08-25T05:56:30.036Z,1.67
2023-08-25T05:59:01.172Z,1.55
2023-08-25T06:01:31.946Z,1.73
2023-08-25T06:04:01.721Z,1.80
2023-08-25T06:06:31.623Z,1.50
2023-08-25T06:08:59.842Z,1.77
2023-08-25T06:11:29.743Z,1.60
2023-08-25T06:13:58.272Z,1.70
2023-08-25T06:16:28.009Z,1.80
2023-08-25T06:18:56.300Z,1.90
2023-08-25T06:21:24.745Z,1.65
2023-08-25T06:23:53.461Z,2.10
2023-08-25T06:26:24.479Z,1.80
2023-08-25T06:28:54.377Z,1.80
2023-08-25T06:31:22.830Z,1.67
2023-08-25T06:33:51.398Z,1.92
2023-08-25T06:36:19.820Z,1.90
2023-08-25T06:38:56.214Z,1.70
2023-08-25T06:41:25.979Z,2.13
2023-08-25T06:43:58.233Z,2.07
2023-08-25T06:46:26.647Z,1.95
2023-08-25T06:48:55.172Z,2.10
2023-08-25T06:51:23.533Z,2.00
2023-08-25T06:53:52.033Z,1.73
2023-08-25T06:56:20.476Z,1.50
2023-08-25T06:58:48.910Z,1.85
2023-08-25T07:01:19.619Z,2.20
2023-08-25T07:03:49.088Z,1.98
2023-08-25T07:06:17.596Z,2.00
2023-08-25T07:08:46.611Z,3.53
2023-08-25T07:11:15.026Z,2.65
2023-08-25T07:13:43.369Z,2.70
2023-08-25T07:16:12.028Z,2.08
2023-08-25T07:18:41.756Z,1.63
2023-08-25T07:21:11.156Z,2.27
2023-08-25T07:23:40.039Z,1.70
2023-08-25T07:26:08.473Z,2.80
2023-08-25T07:28:36.873Z,2.05
2023-08-25T07:31:05.673Z,1.90
2023-08-25T07:33:34.319Z,1.90
2023-08-25T07:36:05.181Z,1.65
2023-08-25T07:38:33.626Z,2.05
2023-08-25T07:41:02.116Z,1.75
2023-08-25T07:43:30.604Z,1.90
2023-08-25T07:45:59.079Z,1.97
2023-08-25T07:48:27.509Z,2.17
2023-08-25T07:50:56.066Z,2.13
2023-08-25T07:53:25.511Z,2.33
2023-08-25T07:55:54.847Z,1.83
2023-08-25T07:58:23.653Z,2.00
2023-08-25T08:00:52.116Z,2.10
2023-08-25T08:03:20.594Z,2.13
2023-08-25T08:05:49.127Z,1.95
2023-08-25T08:08:17.856Z,2.10
2023-08-25T08:10:47.455Z,1.80
2023-08-25T08:13:16.091Z,2.22
2023-08-25T08:15:44.471Z,2.25
2023-08-25T08:18:12.899Z,1.90
2023-08-25T08:20:41.292Z,1.90
2023-08-25T08:23:10.826Z,1.63
2023-08-25T08:25:39.503Z,1.70
2023-08-25T08:28:09.746Z,2.30
2023-08-25T08:30:38.270Z,2.30
2023-08-25T08:33:07.451Z,2.25
2023-08-25T08:35:35.890Z,2.40
2023-08-25T08:38:06.262Z,2.60
2023-08-25T08:40:34.805Z,2.45
2023-08-25T08:43:04.754Z,2.60
2023-08-25T08:45:37.690Z,2.50
2023-08-25T08:48:07.677Z,2.50
2023-08-25T08:50:36.133Z,3.47
2023-08-25T08:53:06.858Z,2.58
2023-08-25T08:55:35.528Z,2.50
2023-08-25T08:58:05.148Z,2.55
2023-08-25T09:00:38.128Z,2.90
2023-08-25T09:03:10.767Z,3.13
2023-08-25T09:05:40.551Z,2.80
2023-08-25T09:08:10.456Z,2.60
2023-08-25T09:10:38.991Z,2.72
2023-08-25T09:13:08.034Z,2.83
2023-08-25T09:15:37.479Z,3.08
2023-08-25T09:18:07.791Z,2.65
2023-08-25T09:20:40.010Z,2.60
2023-08-25T09:23:09.363Z,3.28
2023-08-25T09:25:37.760Z,2.70
2023-08-25T09:28:06.586Z,2.67
2023-08-25T09:30:35.997Z,2.67
2023-08-25T09:33:06.722Z,3.30
2023-08-25T09:35:35.345Z,2.95
2023-08-25T09:38:03.836Z,2.80
2023-08-25T09:40:34.625Z,3.20
2023-08-25T09:43:03.960Z,3.47
2023-08-25T09:45:33.286Z,3.00
2023-08-25T09:48:10.166Z,2.85
2023-08-25T09:50:39.957Z,3.03
2023-08-25T09:53:09.143Z,2.78
2023-08-25T09:55:38.593Z,3.28
2023-08-25T09:58:07.728Z,2.55
2023-08-25T10:00:36.673Z,2.63
2023-08-25T10:03:05.862Z,2.63
2023-08-25T10:05:37.323Z,2.47
2023-08-25T10:08:06.005Z,2.25
2023-08-25T10:10:37.636Z,2.70
2023-08-25T10:13:06.692Z,2.00
2023-08-25T10:15:35.548Z,2.43
2023-08-25T10:18:05.034Z,2.20
2023-08-25T10:20:33.767Z,2.10
2023-08-25T10:23:05.582Z,2.03
2023-08-25T10:25:35.085Z,2.20
2023-08-25T10:28:04.776Z,1.90
2023-08-25T10:30:34.017Z,2.10
2023-08-25T10:33:05.940Z,2.45
2023-08-25T10:35:42.014Z,1.90
2023-08-25T10:38:40.498Z,2.00
2023-08-25T10:41:17.188Z,2.27
2023-08-25T10:43:52.757Z,2.00
2023-08-25T10:46:31.960Z,2.10
2023-08-25T10:49:09.251Z,2.30
2023-08-25T10:51:39.592Z,2.20
2023-08-25T10:54:17.513Z,2.03
2023-08-25T10:56:46.516Z,2.35
2023-08-25T10:59:14.829Z,2.03
2023-08-25T11:02:00.374Z,2.30
2023-08-25T11:04:31.226Z,2.25
2023-08-25T11:07:00.576Z,2.20
2023-08-25T11:09:34.902Z,2.40
2023-08-25T11:12:07.190Z,2.53
2023-08-25T11:14:36.927Z,2.00
2023-08-25T11:17:06.342Z,2.10
2023-08-25T11:19:37.592Z,2.20
2023-08-25T11:22:07.379Z,2.03
2023-08-25T11:24:36.861Z,2.50
2023-08-25T11:27:06.663Z,2.30
2023-08-25T11:29:35.048Z,2.30
2023-08-25T11:32:04.035Z,2.00
2023-08-25T11:34:32.679Z,2.08
2023-08-25T11:37:01.360Z,1.73
2023-08-25T11:39:29.824Z,1.85
2023-08-25T11:41:59.686Z,1.70
2023-08-25T11:44:28.337Z,2.53
2023-08-25T11:47:00.019Z,2.10
2023-08-25T11:49:30.556Z,2.35
2023-08-25T11:51:58.969Z,2.33
2023-08-25T11:54:27.570Z,2.20
2023-08-25T11:56:56.041Z,1.83
2023-08-25T11:59:30.244Z,2.05
2023-08-25T12:02:02.438Z,2.33
2023-08-25T12:04:30.836Z,1.92
2023-08-25T12:07:02.484Z,2.00
2023-08-25T12:09:31.042Z,2.30
2023-08-25T12:11:59.529Z,2.10
2023-08-25T12:14:30.607Z,2.10
2023-08-25T12:16:59.748Z,1.88
2023-08-25T12:19:28.400Z,1.90
2023-08-25T12:21:58.042Z,1.67
2023-08-25T12:24:26.484Z,1.55
2023-08-25T12:26:54.810Z,1.70
2023-08-25T12:29:23.212Z,1.83
2023-08-25T12:31:54.243Z,2.15
2023-08-25T12:34:22.375Z,1.93
2023-08-25T12:36:50.722Z,2.40
2023-08-25T12:39:19.474Z,2.30
2023-08-25T12:41:47.829Z,2.75
2023-08-25T12:44:16.281Z,2.20
2023-08-25T12:46:44.753Z,2.53
2023-08-25T12:49:16.251Z,2.65
2023-08-25T12:51:44.824Z,2.70
2023-08-25T12:54:14.576Z,2.08
2023-08-25T12:56:43.173Z,2.40
2023-08-25T12:59:11.956Z,2.47
2023-08-25T13:01:40.321Z,2.45
2023-08-25T13:04:08.906Z,3.00
2023-08-25T13:06:38.422Z,2.58
2023-08-25T13:09:06.909Z,2.40
2023-08-25T13:11:35.366Z,2.60
2023-08-25T13:14:03.801Z,2.45
2023-08-25T13:16:32.354Z,2.10
2023-08-25T13:19:00.891Z,2.28
2023-08-25T13:21:29.459Z,2.38
2023-08-25T13:24:09.231Z,2.07
2023-08-25T13:26:39.289Z,2.08
2023-08-25T13:29:07.733Z,2.28
2023-08-25T13:31:36.103Z,2.33
2023-08-25T13:34:04.477Z,2.10
2023-08-25T13:36:32.869Z,2.27
2023-08-25T13:39:03.314Z,2.20
2023-08-25T13:41:31.840Z,2.38
2023-08-25T13:44:00.203Z,2.60
2023-08-25T13:46:28.802Z,2.78
2023-08-25T13:48:57.381Z,2.50
2023-08-25T13:51:25.850Z,3.25
2023-08-25T13:53:54.884Z,4.88
2023-08-25T13:56:24.597Z,2.95
2023-08-25T13:58:53.344Z,3.40
2023-08-25T14:01:21.712Z,2.30
2023-08-25T14:03:50.218Z,2.47
2023-08-25T14:06:18.838Z,2.50
2023-08-25T14:08:48.645Z,2.72
2023-08-25T14:11:17.043Z,2.67
2023-08-25T14:13:46.540Z,2.50
2023-08-25T14:16:14.956Z,2.40
2023-08-25T14:18:43.079Z,2.38
2023-08-25T14:21:11.685Z,2.60
2023-08-25T14:23:40.897Z,2.60
2023-08-25T14:26:09.427Z,2.40
2023-08-25T14:28:37.798Z,2.40
2023-08-25T14:31:08.252Z,2.72
2023-08-25T14:33:36.603Z,2.78
2023-08-25T14:36:05.083Z,2.58
2023-08-25T14:38:33.111Z,2.40
2023-08-25T14:41:01.491Z,2.50
2023-08-25T14:43:30.590Z,2.70
2023-08-25T14:45:59.089Z,2.38
2023-08-25T14:48:28.557Z,3.10
2023-08-25T14:50:58.664Z,2.93
2023-08-25T14:53:27.879Z,2.60
2023-08-25T14:55:56.829Z,2.53
2023-08-25T14:58:26.046Z,2.95
2023-08-25T15:00:56.157Z,2.90
2023-08-25T15:03:25.219Z,2.60
2023-08-25T15:05:58.689Z,2.80
2023-08-25T15:08:29.437Z,2.90
2023-08-25T15:10:57.830Z,2.90
2023-08-25T15:13:26.710Z,2.92
2023-08-25T15:15:55.103Z,3.50
2023-08-25T15:18:23.535Z,3.13
2023-08-25T15:21:00.172Z,2.85
2023-08-25T15:23:28.986Z,2.80
2023-08-25T15:25:57.578Z,3.20
2023-08-25T15:28:27.440Z,3.00
2023-08-25T15:31:03.053Z,2.95
2023-08-25T15:33:31.437Z,2.85
2023-08-25T15:36:00.820Z,3.00
2023-08-25T15:38:30.236Z,2.70
2023-08-25T15:40:58.853Z,3.40
2023-08-25T15:43:27.265Z,3.63
2023-08-25T15:45:56.011Z,3.10
2023-08-25T15:48:24.993Z,2.78
2023-08-25T15:50:54.746Z,3.03
2023-08-25T15:53:25.881Z,8.43
2023-08-25T15:55:54.480Z,3.35
2023-08-25T15:58:23.439Z,3.22
2023-08-25T16:00:54.028Z,3.20
2023-08-25T16:03:22.963Z,2.95
2023-08-25T16:06:01.148Z,3.03
2023-08-25T16:08:31.501Z,2.83
2023-08-25T16:11:02.289Z,3.25
2023-08-25T16:13:30.968Z,2.78
2023-08-25T16:15:59.481Z,3.00
2023-08-25T16:18:28.009Z,3.40
2023-08-25T16:21:02.637Z,3.05
2023-08-25T16:23:34.402Z,2.97
2023-08-25T16:26:03.052Z,2.75
2023-08-25T16:28:31.459Z,2.97
2023-08-25T16:31:02.417Z,3.60
2023-08-25T16:33:31.329Z,2.90
2023-08-25T16:35:59.828Z,2.85
2023-08-25T16:38:28.312Z,2.90
2023-08-25T16:40:57.860Z,3.53
2023-08-25T16:43:26.220Z,2.80
2023-08-25T16:45:54.659Z,3.10
2023-08-25T16:48:23.465Z,3.03
2023-08-25T16:50:52.221Z,3.47
2023-08-25T16:53:20.879Z,3.20
2023-08-25T16:55:51.366Z,3.33
2023-08-25T16:58:20.865Z,3.28
2023-08-25T17:00:49.368Z,3.05
2023-08-25T17:03:17.989Z,3.63
2023-08-25T17:05:46.563Z,4.13
2023-08-25T17:08:15.382Z,4.20
2023-08-25T17:10:45.585Z,2.97
2023-08-25T17:13:13.736Z,3.45
2023-08-25T17:15:43.380Z,2.95
2023-08-25T17:18:11.867Z,3.15
2023-08-25T17:20:40.246Z,2.77
2023-08-25T17:23:09.052Z,2.53
2023-08-25T17:25:37.648Z,3.30
2023-08-25T17:28:09.120Z,3.08
2023-08-25T17:30:37.546Z,3.40
2023-08-25T17:33:07.239Z,3.00
2023-08-25T17:35:39.787Z,2.92
2023-08-25T17:38:08.234Z,3.33
2023-08-25T17:40:40.328Z,3.30
2023-08-25T17:43:10.159Z,3.40
2023-08-25T17:45:38.448Z,3.10
2023-08-25T17:48:08.838Z,3.33
2023-08-25T17:50:37.303Z,3.15
2023-08-25T17:53:05.827Z,3.30
2023-08-25T17:55:33.992Z,3.25
2023-08-25T17:58:02.328Z,3.33
2023-08-25T18:00:30.736Z,3.30
2023-08-25T18:02:59.358Z,3.17
2023-08-25T18:05:30.792Z,3.20
2023-08-25T18:07:59.202Z,3.50
2023-08-25T18:10:27.586Z,3.00
2023-08-25T18:12:56.177Z,3.45
2023-08-25T18:15:24.589Z,3.40
2023-08-25T18:17:52.719Z,4.40
2023-08-25T18:20:21.175Z,4.18
2023-08-25T18:22:52.222Z,3.37
2023-08-25T18:25:21.090Z,3.58
2023-08-25T18:27:49.642Z,3.60
2023-08-25T18:30:20.782Z,3.97
2023-08-25T18:32:49.128Z,3.72
2023-08-25T18:35:17.547Z,3.43
2023-08-25T18:37:46.130Z,3.70
2023-08-25T18:40:15.697Z,4.25
2023-08-25T18:42:43.739Z,3.30
2023-08-25T18:45:12.287Z,3.90
2023-08-25T18:47:40.415Z,5.80
2023-08-25T18:50:11.775Z,4.22
2023-08-25T18:52:40.430Z,3.70
2023-08-25T18:55:10.240Z,3.30
2023-08-25T18:57:39.756Z,3.53
2023-08-25T19:00:09.856Z,3.50
2023-08-25T19:02:38.284Z,3.78
2023-08-25T19:05:07.135Z,3.80
2023-08-25T19:07:35.597Z,3.75
2023-08-25T19:10:04.036Z,3.90
2023-08-25T19:12:32.433Z,3.90
2023-08-25T19:15:01.823Z,3.40
2023-08-25T19:17:30.225Z,3.40
2023-08-25T19:19:58.606Z,3.60
2023-08-25T19:22:26.708Z,3.72
2023-08-25T19:24:55.154Z,3.77
2023-08-25T19:27:23.768Z,3.72
2023-08-25T19:29:52.136Z,3.83
2023-08-25T19:32:21.762Z,3.47
2023-08-25T19:34:50.126Z,3.65
2023-08-25T19:37:18.519Z,3.90
2023-08-25T19:39:46.887Z,4.13
2023-08-25T19:42:15.259Z,3.83
2023-08-25T19:44:43.629Z,3.67
2023-08-25T19:47:12.005Z,3.35
2023-08-25T19:49:41.385Z,4.00
2023-08-25T19:52:09.758Z,3.70
2023-08-25T19:54:38.138Z,3.80
2023-08-25T19:57:06.597Z,3.90
2023-08-25T19:59:35.453Z,3.53
2023-08-25T20:02:04.185Z,3.57
2023-08-25T20:04:32.622Z,3.78
2023-08-25T20:07:05.244Z,3.85
2023-08-25T20:09:36.489Z,4.25
2023-08-25T20:12:05.062Z,3.88
2023-08-25T20:14:34.374Z,4.30
2023-08-25T20:17:02.927Z,4.28
2023-08-25T20:19:31.575Z,4.18
2023-08-25T20:22:00.042Z,4.63
2023-08-25T20:24:29.551Z,4.07
2023-08-25T20:26:58.152Z,3.80
2023-08-25T20:29:26.616Z,4.10
2023-08-25T20:31:55.101Z,4.20
2023-08-25T20:34:23.727Z,4.07
2023-08-25T20:36:52.186Z,4.38
2023-08-25T20:39:20.636Z,4.53
2023-08-25T20:41:50.102Z,4.47
2023-08-25T20:44:18.579Z,4.45
2023-08-25T20:46:47.044Z,4.57
2023-08-25T20:49:15.534Z,4.68
2023-08-25T20:51:43.903Z,4.63
2023-08-25T20:54:12.323Z,4.50
2023-08-25T20:56:40.880Z,4.60
2023-08-25T20:59:10.468Z,5.30
2023-08-25T21:01:39.049Z,5.28
2023-08-25T21:04:08.009Z,5.77
2023-08-25T21:06:36.562Z,5.00
2023-08-25T21:09:04.995Z,4.60
2023-08-25T21:11:33.464Z,4.70
2023-08-25T21:14:03.061Z,4.93
2023-08-25T21:16:37.349Z,4.70
2023-08-25T21:19:06.566Z,5.43
2023-08-25T21:21:39.937Z,5.03
2023-08-25T21:24:11.145Z,4.93
2023-08-25T21:26:40.038Z,4.85
2023-08-25T21:29:08.828Z,4.77
2023-08-25T21:31:39.688Z,5.22
2023-08-25T21:34:08.688Z,4.95
2023-08-25T21:36:37.170Z,4.38
2023-08-25T21:39:05.887Z,5.05
2023-08-25T21:41:34.359Z,4.63
2023-08-25T21:44:03.363Z,4.72
2023-08-25T21:46:33.591Z,5.32
2023-08-25T21:49:03.135Z,4.80
2023-08-25T21:51:31.602Z,5.38
2023-08-25T21:54:00.033Z,5.17
2023-08-25T21:56:28.522Z,4.68
2023-08-25T21:58:56.976Z,5.07
2023-08-25T22:01:25.465Z,5.20
2023-08-25T22:03:54.051Z,5.55
2023-08-25T22:06:23.621Z,5.00
2023-08-25T22:08:52.170Z,5.43
2023-08-25T22:11:21.021Z,5.55
2023-08-25T22:13:49.618Z,4.75
2023-08-25T22:16:18.257Z,5.50
2023-08-25T22:18:46.981Z,5.73
2023-08-25T22:21:15.480Z,6.07
2023-08-25T22:23:45.026Z,5.90
2023-08-25T22:26:13.525Z,6.18
2023-08-25T22:28:41.905Z,5.40
2023-08-25T22:31:10.422Z,7.20
2023-08-25T22:36:10.585Z,6.20
2023-08-25T22:38:39.032Z,5.70
2023-08-25T22:41:07.560Z,5.65
2023-08-25T22:43:36.020Z,6.00
2023-08-25T22:46:08.200Z,6.25
2023-08-25T22:48:36.654Z,6.15
2023-08-25T22:51:06.999Z,5.80
2023-08-25T22:53:35.757Z,6.60
2023-08-25T22:56:04.522Z,5.90
2023-08-25T22:58:34.081Z,6.25
2023-08-25T23:01:02.535Z,6.43
2023-08-25T23:03:31.158Z,5.43
2023-08-25T23:06:03.532Z,6.50
2023-08-25T23:08:31.936Z,6.20
2023-08-25T23:11:00.278Z,6.85
2023-08-25T23:13:28.768Z,6.70
2023-08-25T23:15:58.856Z,6.47
2023-08-25T23:18:27.372Z,6.68
2023-08-25T23:20:56.644Z,6.20
2023-08-25T23:23:25.105Z,5.65
2023-08-25T23:25:53.585Z,6.25
2023-08-25T23:28:22.580Z,6.60
2023-08-25T23:30:51.019Z,6.70
2023-08-25T23:33:20.479Z,6.07
2023-08-25T23:35:48.957Z,6.90
2023-08-25T23:38:17.173Z,6.95
2023-08-25T23:40:53.927Z,6.18
2023-08-25T23:43:22.710Z,7.00
2023-08-25T23:45:51.543Z,6.87
2023-08-25T23:48:20.950Z,6.90
2023-08-25T23:50:49.366Z,6.07
2023-08-25T23:53:17.940Z,5.63
2023-08-25T23:55:46.430Z,6.32
2023-08-25T23:58:14.884Z,5.60
